CDT,Max TemperatureF,Mean TemperatureF,Min TemperatureF,Max Dew PointF,MeanDew PointF,Min DewpointF,Max Humidity, Mean Humidity, Min Humidity, Max Sea Level PressureIn, Mean Sea Level PressureIn, Min Sea Level PressureIn, Max VisibilityMiles, Mean VisibilityMiles, Min VisibilityMiles, Max Wind SpeedMPH, Mean Wind SpeedMPH, Max Gust SpeedMPH,PrecipitationIn, CloudCover, Events, WindDirDegrees
2013-5-1,53,42,32,41,34,32,100,82,44,30.47,30.26,29.96,10,7,0,13,5,20,0.56,8,Rain-Snow,316
2013-5-2,33,32,30,32,30,28,100,92,81,30.52,30.47,30.41,10,4,0,15,9,21,0.35,8,Snow,355
2013-5-3,32,31,30,30,29,27,93,89,80,30.41,30.24,30.16,10,8,2,20,11,26,0.08,8,Rain-Snow,4
2013-5-4,46,39,32,36,33,30,100,88,66,30.18,30.15,30.12,10,9,2,14,9,,0.21,7,Rain-Snow,1
2013-5-5,62,48,33,43,36,32,93,73,45,30.18,30.14,30.08,10,10,10,9,7,,0.00,2,,359
2013-5-6,71,53,35,45,38,34,100,58,25,30.13,30.08,30.03,10,10,10,8,3,,0.00,0,,345
2013-5-7,77,59,41,45,40,32,93,55,19,30.09,30.04,29.99,10,10,7,10,2,9,0.00,1,,181
2013-5-8,75,58,42,52,45,41,100,61,29,30.04,30.01,29.98,10,10,7,9,1,,0.00,3,Rain,352
2013-5-9,59,49,39,50,41,32,93,82,67,30.12,30.06,30.00,10,10,7,21,10,31,0.17,8,Rain,12
2013-5-10,62,48,33,41,28,21,81,51,20,30.13,30.04,29.89,10,10,10,13,7,,0.00,1,,352
2013-5-11,53,45,37,34,27,21,75,55,37,30.13,30.02,29.87,10,10,10,22,11,31,0.00,7,Rain,315
2013-5-12,53,42,32,28,20,12,75,45,21,30.18,30.14,30.09,10,10,10,15,8,26,0.00,0,,312
2013-5-13,59,44,30,34,26,19,81,48,25,30.15,30.01,29.73,10,10,10,20,5,24,0.00,1,Rain,140
2013-5-14,86,62,37,50,40,32,93,46,16,29.81,29.63,29.46,10,10,10,21,6,29,0.00,0,Rain,163
2013-5-15,77,65,53,45,40,34,72,43,21,29.91,29.82,29.63,10,10,10,17,10,24,0.00,1,,282
2013-5-16,77,60,42,46,37,23,93,45,20,30.00,29.93,29.86,10,10,10,16,5,23,0.00,1,,17
2013-5-17,62,58,51,50,42,27,88,58,26,30.07,30.04,29.98,10,10,7,17,11,23,0.01,7,Rain,111
2013-5-18,73,62,51,61,53,46,94,84,61,30.06,29.97,29.87,10,8,4,15,9,20,0.30,5,Rain-Thunderstorm,130
2013-5-19,82,72,62,63,59,57,94,77,42,29.89,29.77,29.65,10,9,4,20,8,25,0.24,4,Rain-Thunderstorm,121
2013-5-20,71,62,53,61,57,52,100,78,53,29.68,29.62,29.57,10,9,3,20,8,31,0.29,6,Rain-Thunderstorm,147
2013-5-21,59,54,50,55,52,47,100,90,77,29.74,29.64,29.57,10,9,2,14,7,20,0.48,8,Rain-Thunderstorm,2
2013-5-22,55,50,45,48,45,42,92,83,70,30.01,29.80,29.72,10,10,7,20,11,25,0.05,8,Rain,13
2013-5-23,58,48,37,42,32,24,83,55,30,30.36,30.23,30.01,10,10,10,21,14,28,0.01,0,,15
2013-5-24,65,48,32,43,34,31,99,58,29,30.45,30.36,30.27,10,10,1,13,3,18,0.00,0,,132
2013-5-25,62,54,43,46,42,37,86,63,43,30.33,30.31,30.28,10,10,10,16,5,21,0.00,6,,120
2013-5-26,66,53,41,42,37,28,91,52,31,30.30,30.23,30.13,10,10,10,20,7,24,0.00,4,,110
2013-5-27,63,58,52,51,45,39,82,65,51,30.11,30.00,29.91,10,10,5,23,9,30,0.00,7,,101
2013-5-28,59,54,51,55,51,47,96,88,77,29.90,29.79,29.75,10,8,2,14,8,18,0.14,8,Rain,109
2013-5-29,76,65,55,66,58,54,97,86,66,29.89,29.80,29.71,10,7,2,15,4,22,0.04,6,Rain-Thunderstorm,136
2013-5-30,76,68,62,65,62,60,93,79,60,29.78,29.67,29.59,10,10,5,23,11,32,0.08,7,Rain,138
2013-5-31,75,66,56,60,57,50,94,75,52,29.66,29.61,29.57,10,10,2,22,12,30,0.40,5,Rain-Thunderstorm,148